createdAt,value
2023-03-24T00:02:20.123Z,100.00
2023-03-24T00:04:49.750Z,100.00
2023-03-24T00:07:17.326Z,100.00
2023-03-24T00:09:45.899Z,100.00
2023-03-24T00:12:14.784Z,100.00
2023-03-24T00:14:42.508Z,100.00
2023-03-24T00:17:10.077Z,100.00
2023-03-24T00:19:38.637Z,100.00
2023-03-24T00:22:08.296Z,100.00
2023-03-24T00:24:36.074Z,100.00
2023-03-24T00:27:03.934Z,100.00
2023-03-24T00:29:31.536Z,100.00
2023-03-24T00:31:59.563Z,100.00
2023-03-24T00:34:27.307Z,100.00
2023-03-24T00:36:54.811Z,100.00
2023-03-24T00:39:22.413Z,100.00
2023-03-24T00:41:50.026Z,100.00
2023-03-24T00:44:20.654Z,100.00
2023-03-24T00:46:57.145Z,100.00
2023-03-24T00:49:44.790Z,100.00
2023-03-24T00:52:18.320Z,100.00
2023-03-24T00:54:46.572Z,100.00
2023-03-24T00:57:21.973Z,100.00
2023-03-24T00:59:50.482Z,100.00
2023-03-24T01:02:22.474Z,100.00
2023-03-24T01:04:57.629Z,100.00
2023-03-24T01:07:27.299Z,100.00
2023-03-24T01:09:58.073Z,100.00
2023-03-24T01:12:30.189Z,100.00
2023-03-24T01:15:00.485Z,100.00
2023-03-24T01:17:29.805Z,100.00
2023-03-24T01:19:57.908Z,100.00
2023-03-24T01:22:30.931Z,100.00
2023-03-24T01:25:00.968Z,100.00
2023-03-24T01:27:28.528Z,100.00
2023-03-24T01:30:02.380Z,100.00
2023-03-24T01:32:29.857Z,100.00
2023-03-24T01:34:57.273Z,100.00
2023-03-24T01:37:24.834Z,100.00
2023-03-24T01:39:52.314Z,100.00
2023-03-24T01:42:23.060Z,100.00
2023-03-24T01:44:54.368Z,100.00
2023-03-24T01:47:21.987Z,100.00
2023-03-24T01:49:59.410Z,100.00
2023-03-24T01:52:31.696Z,100.00
2023-03-24T01:55:14.298Z,100.00
2023-03-24T01:57:46.518Z,100.00
2023-03-24T02:00:18.290Z,100.00
2023-03-24T02:03:21.127Z,100.00
2023-03-24T02:05:57.787Z,100.00
2023-03-24T02:08:36.880Z,100.00
2023-03-24T02:11:04.850Z,100.00
2023-03-24T02:13:42.020Z,100.00
2023-03-24T02:16:28.346Z,100.00
2023-03-24T02:19:12.707Z,100.00
2023-03-24T02:21:43.723Z,100.00
2023-03-24T02:24:47.629Z,100.00
2023-03-24T02:27:35.018Z,100.00
2023-03-24T02:30:18.672Z,100.00
2023-03-24T02:33:04.353Z,100.00
2023-03-24T02:36:10.806Z,100.00
2023-03-24T02:39:06.530Z,100.00
2023-03-24T02:41:43.642Z,100.00
2023-03-24T02:44:22.360Z,100.00
2023-03-24T02:47:01.433Z,100.00
2023-03-24T02:49:46.519Z,100.00
2023-03-24T02:52:24.660Z,100.00
2023-03-24T02:54:59.388Z,100.00
2023-03-24T02:57:29.734Z,100.00
2023-03-24T03:00:33.897Z,100.00
2023-03-24T03:03:12.539Z,100.00
2023-03-24T03:05:58.741Z,100.00
2023-03-24T03:08:32.566Z,100.00
2023-03-24T03:11:03.215Z,100.00
2023-03-24T03:13:43.837Z,100.00
2023-03-24T03:16:25.651Z,100.00
2023-03-24T03:19:01.626Z,100.00
2023-03-24T03:21:40.339Z,100.00
2023-03-24T03:24:15.800Z,100.00
2023-03-24T03:26:46.270Z,100.00
2023-03-24T03:29:22.179Z,100.00
2023-03-24T03:32:05.762Z,100.00
2023-03-24T03:35:10.422Z,100.00
2023-03-24T03:38:05.614Z,100.00
2023-03-24T03:40:37.420Z,100.00
2023-03-24T03:43:13.234Z,100.00
2023-03-24T03:45:41.208Z,100.00
2023-03-24T03:48:10.228Z,100.00
2023-03-24T03:50:39.193Z,100.00
2023-03-24T03:53:09.880Z,100.00
2023-03-24T03:55:38.338Z,100.00
2023-03-24T03:58:06.307Z,100.00
2023-03-24T04:00:55.961Z,100.00
2023-03-24T04:06:36.277Z,100.00
2023-03-24T04:09:27.529Z,100.00
2023-03-24T04:12:10.375Z,100.00
2023-03-24T04:15:01.595Z,100.00
2023-03-24T04:18:09.328Z,100.00
2023-03-24T04:21:28.614Z,100.00
2023-03-24T04:24:19.321Z,100.00
2023-03-24T04:26:54.733Z,100.00
2023-03-24T04:29:33.448Z,100.00
2023-03-24T04:32:11.363Z,100.00
2023-03-24T04:34:45.238Z,100.00
2023-03-24T04:37:45.499Z,100.00
2023-03-24T04:40:21.182Z,100.00
2023-03-24T04:42:53.045Z,100.00
2023-03-24T04:45:25.854Z,100.00
2023-03-24T04:48:26.388Z,100.00
2023-03-24T04:51:16.244Z,100.00
2023-03-24T04:54:04.802Z,100.00
2023-03-24T04:56:42.169Z,100.00
2023-03-24T04:59:15.835Z,100.00
2023-03-24T05:01:50.780Z,100.00
2023-03-24T05:04:28.867Z,100.00
2023-03-24T05:07:05.007Z,100.00
2023-03-24T05:09:32.978Z,100.00
2023-03-24T05:12:02.275Z,100.00
2023-03-24T05:14:35.632Z,100.00
2023-03-24T05:17:05.466Z,100.00
2023-03-24T05:19:34.157Z,100.00
2023-03-24T05:22:01.971Z,100.00
2023-03-24T05:24:30.622Z,100.00
2023-03-24T05:26:58.069Z,100.00
2023-03-24T05:29:25.570Z,100.00
2023-03-24T05:31:53.069Z,100.00
2023-03-24T05:34:23.072Z,100.00
2023-03-24T05:37:04.528Z,100.00
2023-03-24T05:39:32.218Z,100.00
2023-03-24T05:42:07.714Z,100.00
2023-03-24T05:44:35.376Z,100.00
2023-03-24T05:47:06.163Z,100.00
2023-03-24T05:49:33.635Z,100.00
2023-03-24T05:52:01.683Z,100.00
2023-03-24T05:54:29.869Z,100.00
2023-03-24T05:57:14.842Z,100.00
2023-03-24T06:00:05.273Z,100.00
2023-03-24T06:02:51.417Z,100.00
2023-03-24T06:05:41.019Z,100.00
2023-03-24T06:08:10.032Z,100.00
2023-03-24T06:10:38.235Z,100.00
2023-03-24T06:13:08.781Z,100.00
2023-03-24T06:15:39.783Z,100.00
2023-03-24T06:18:27.455Z,100.00
2023-03-24T06:20:57.294Z,100.00
2023-03-24T06:23:29.652Z,100.00
2023-03-24T06:26:09.671Z,100.00
2023-03-24T06:28:42.630Z,100.00
2023-03-24T06:31:19.332Z,100.00
2023-03-24T06:33:52.393Z,100.00
2023-03-24T06:36:20.850Z,100.00
2023-03-24T06:38:48.910Z,100.00
2023-03-24T06:41:19.901Z,100.00
2023-03-24T06:43:51.384Z,100.00
2023-03-24T06:46:19.196Z,100.00
2023-03-24T06:48:49.292Z,100.00
2023-03-24T06:51:17.777Z,100.00
2023-03-24T06:53:47.043Z,100.00
2023-03-24T06:56:17.654Z,100.00
2023-03-24T06:58:51.762Z,100.00
2023-03-24T07:01:28.681Z,100.00
2023-03-24T07:03:59.568Z,100.00
2023-03-24T07:06:50.943Z,100.00
2023-03-24T07:09:27.276Z,100.00
2023-03-24T07:11:54.851Z,100.00
2023-03-24T07:14:26.266Z,100.00
2023-03-24T07:16:55.104Z,100.00
2023-03-24T07:19:41.501Z,100.00
2023-03-24T07:22:32.678Z,100.00
2023-03-24T07:25:20.089Z,100.00
2023-03-24T07:27:58.545Z,100.00
2023-03-24T07:30:37.171Z,100.00
2023-03-24T07:33:10.261Z,100.00
2023-03-24T07:35:42.136Z,100.00
2023-03-24T07:38:11.087Z,100.00
2023-03-24T07:40:38.920Z,100.00
2023-03-24T07:43:09.151Z,100.00
2023-03-24T07:46:12.235Z,100.00
2023-03-24T07:48:40.042Z,100.00
2023-03-24T07:51:07.593Z,100.00
2023-03-24T07:53:57.833Z,100.00
2023-03-24T07:56:36.553Z,100.00
2023-03-24T07:59:05.125Z,100.00
2023-03-24T08:01:57.602Z,100.00
2023-03-24T08:04:56.581Z,100.00
2023-03-24T08:07:43.593Z,100.00
2023-03-24T08:10:17.872Z,100.00
2023-03-24T08:12:45.523Z,100.00
2023-03-24T08:15:13.630Z,100.00
2023-03-24T08:17:41.377Z,100.00
2023-03-24T08:20:15.160Z,100.00
2023-03-24T08:22:44.816Z,100.00
2023-03-24T08:25:13.493Z,100.00
2023-03-24T08:27:43.557Z,100.00
2023-03-24T08:30:15.129Z,100.00
2023-03-24T08:32:50.594Z,100.00
2023-03-24T08:35:21.292Z,100.00
2023-03-24T08:37:48.875Z,100.00
2023-03-24T08:40:21.081Z,100.00
2023-03-24T08:42:50.564Z,100.00
2023-03-24T08:45:23.937Z,100.00
2023-03-24T08:47:52.642Z,100.00
2023-03-24T08:50:24.120Z,100.00
2023-03-24T08:52:51.692Z,100.00
2023-03-24T08:55:21.177Z,100.00
2023-03-24T08:57:49.875Z,100.00
2023-03-24T09:00:21.019Z,100.00
2023-03-24T09:02:52.618Z,100.00
2023-03-24T09:05:32.758Z,100.00
2023-03-24T09:08:04.627Z,100.00
2023-03-24T09:10:32.144Z,100.00
2023-03-24T09:12:59.708Z,100.00
2023-03-24T09:15:27.171Z,100.00
2023-03-24T09:17:57.738Z,100.00
2023-03-24T09:20:25.897Z,100.00
2023-03-24T09:22:53.341Z,100.00
2023-03-24T09:25:21.683Z,100.00
2023-03-24T09:27:49.409Z,100.00
2023-03-24T09:30:18.601Z,100.00
2023-03-24T09:32:46.648Z,100.00
2023-03-24T09:35:15.207Z,100.00
2023-03-24T09:37:44.167Z,100.00
2023-03-24T09:40:25.367Z,100.00
2023-03-24T09:43:00.686Z,100.00
2023-03-24T09:45:33.182Z,100.00
2023-03-24T09:48:12.922Z,100.00
2023-03-24T09:51:06.697Z,100.00
2023-03-24T09:53:57.414Z,100.00
2023-03-24T09:56:26.745Z,100.00
2023-03-24T09:59:03.152Z,100.00
2023-03-24T10:01:31.086Z,100.00
2023-03-24T10:04:00.684Z,100.00
2023-03-24T10:06:42.105Z,100.00
2023-03-24T10:09:31.137Z,100.00
2023-03-24T10:12:21.455Z,100.00
2023-03-24T10:15:11.832Z,100.00
2023-03-24T10:18:06.557Z,100.00
2023-03-24T10:20:47.794Z,100.00
2023-03-24T10:23:34.565Z,100.00
2023-03-24T10:26:37.751Z,100.00
2023-03-24T10:29:30.460Z,100.00
2023-03-24T10:32:02.824Z,100.00
2023-03-24T10:34:39.180Z,100.00
2023-03-24T10:37:07.564Z,100.00
2023-03-24T10:39:44.302Z,100.00
2023-03-24T10:42:18.766Z,100.00
2023-03-24T10:44:49.856Z,100.00
2023-03-24T10:47:24.428Z,99.32
2023-03-24T10:50:14.090Z,99.31
2023-03-24T10:52:47.528Z,100.00
2023-03-24T10:55:20.402Z,100.00
2023-03-24T10:57:59.398Z,100.00
2023-03-24T11:00:32.102Z,100.00
2023-03-24T11:03:04.379Z,93.82
2023-03-24T11:05:38.365Z,94.55
2023-03-24T11:08:14.767Z,96.55
2023-03-24T11:10:42.274Z,91.49
2023-03-24T11:13:38.791Z,94.46
2023-03-24T11:16:17.233Z,87.78
2023-03-24T11:19:04.670Z,91.82
2023-03-24T11:21:35.694Z,92.53
2023-03-24T11:24:11.415Z,100.00
2023-03-24T11:26:41.120Z,100.00
2023-03-24T11:29:18.847Z,100.00
2023-03-24T11:31:59.208Z,96.16
2023-03-24T11:34:34.552Z,96.06
2023-03-24T11:37:19.722Z,91.86
2023-03-24T11:40:15.815Z,95.50
2023-03-24T11:42:46.116Z,99.60
2023-03-24T11:45:24.130Z,100.00
2023-03-24T11:47:54.302Z,100.00
2023-03-24T11:50:27.593Z,100.00
2023-03-24T11:53:04.232Z,100.00
2023-03-24T11:55:49.885Z,100.00
2023-03-24T11:58:51.037Z,100.00
2023-03-24T12:01:24.352Z,100.00
2023-03-24T12:04:27.316Z,100.00
2023-03-24T12:07:39.816Z,100.00
2023-03-24T12:10:24.106Z,94.94
2023-03-24T12:13:03.763Z,98.29
2023-03-24T12:15:34.445Z,93.30
2023-03-24T12:18:20.091Z,95.50
2023-03-24T12:20:57.114Z,88.16
2023-03-24T12:24:06.724Z,89.98
2023-03-24T12:26:35.177Z,90.89
2023-03-24T12:29:14.548Z,88.25
2023-03-24T12:31:42.022Z,78.09
2023-03-24T12:34:15.278Z,76.76
2023-03-24T12:37:19.735Z,80.24
2023-03-24T12:40:22.819Z,80.89
2023-03-24T12:43:06.419Z,85.37
2023-03-24T12:45:39.804Z,91.33
2023-03-24T12:48:19.038Z,93.75
2023-03-24T12:50:55.680Z,98.33
2023-03-24T12:53:44.904Z,100.00
2023-03-24T12:56:18.542Z,100.00
2023-03-24T12:59:27.270Z,100.00
2023-03-24T13:02:36.185Z,100.00
2023-03-24T13:05:07.973Z,100.00
2023-03-24T13:07:39.499Z,100.00
2023-03-24T13:10:20.524Z,100.00
2023-03-24T13:13:14.046Z,100.00
2023-03-24T13:15:58.919Z,100.00
2023-03-24T13:18:48.487Z,100.00
2023-03-24T13:21:21.418Z,100.00
2023-03-24T13:24:10.564Z,100.00
2023-03-24T13:27:05.684Z,100.00
2023-03-24T13:29:49.433Z,100.00
2023-03-24T13:32:20.301Z,100.00
2023-03-24T13:35:07.398Z,100.00
2023-03-24T13:37:48.793Z,100.00
2023-03-24T13:40:28.254Z,100.00
2023-03-24T13:42:58.347Z,100.00
2023-03-24T13:45:44.691Z,100.00
2023-03-24T13:48:12.162Z,100.00
2023-03-24T13:51:01.653Z,100.00
2023-03-24T13:53:44.198Z,100.00
2023-03-24T13:56:23.169Z,100.00
2023-03-24T13:59:30.644Z,100.00
2023-03-24T14:02:23.062Z,100.00
2023-03-24T14:05:02.645Z,100.00
2023-03-24T14:07:41.083Z,100.00
2023-03-24T14:10:14.797Z,100.00
2023-03-24T14:13:05.538Z,100.00
2023-03-24T14:15:34.600Z,100.00
2023-03-24T14:18:24.029Z,100.00
2023-03-24T14:20:57.809Z,100.00
2023-03-24T14:23:40.499Z,100.00
2023-03-24T14:26:20.105Z,100.00
2023-03-24T14:28:50.637Z,100.00
2023-03-24T14:31:29.344Z,100.00
2023-03-24T14:34:02.367Z,100.00
2023-03-24T14:36:39.733Z,100.00
2023-03-24T14:39:30.414Z,100.00
2023-03-24T14:41:59.222Z,100.00
2023-03-24T14:44:45.348Z,100.00
2023-03-24T14:47:18.822Z,100.00
2023-03-24T14:49:49.002Z,100.00
2023-03-24T14:52:24.994Z,100.00
2023-03-24T14:54:59.518Z,100.00
2023-03-24T14:57:34.748Z,100.00
2023-03-24T15:00:15.215Z,100.00
2023-03-24T15:02:51.158Z,100.00
2023-03-24T15:05:21.916Z,100.00
2023-03-24T15:08:23.557Z,100.00
2023-03-24T15:10:55.830Z,100.00
2023-03-24T15:13:32.270Z,100.00
2023-03-24T15:16:01.676Z,100.00
2023-03-24T15:18:29.293Z,100.00
2023-03-24T15:20:57.703Z,100.00
2023-03-24T15:23:28.423Z,100.00
2023-03-24T15:25:56.368Z,100.00
2023-03-24T15:28:29.527Z,100.00
2023-03-24T15:31:01.472Z,100.00
2023-03-24T15:33:35.348Z,100.00
2023-03-24T15:36:04.010Z,100.00
2023-03-24T15:38:33.670Z,100.00
2023-03-24T15:41:10.054Z,100.00
2023-03-24T15:43:52.104Z,100.00
2023-03-24T15:46:31.521Z,100.00
2023-03-24T15:49:00.256Z,100.00
2023-03-24T15:51:51.025Z,100.00
2023-03-24T15:54:40.875Z,100.00
2023-03-24T15:57:23.185Z,100.00
2023-03-24T16:00:06.674Z,100.00
2023-03-24T16:02:57.825Z,100.00
2023-03-24T16:05:31.256Z,100.00
2023-03-24T16:08:01.624Z,100.00
2023-03-24T16:10:39.754Z,100.00
2023-03-24T16:13:15.074Z,100.00
2023-03-24T16:16:03.863Z,100.00
2023-03-24T16:18:33.942Z,100.00
2023-03-24T16:21:04.254Z,100.00
2023-03-24T16:23:32.224Z,100.00
2023-03-24T16:25:59.643Z,100.00
2023-03-24T16:28:27.860Z,100.00
2023-03-24T16:31:03.539Z,100.00
2023-03-24T16:33:32.467Z,100.00
2023-03-24T16:36:00.848Z,100.00
2023-03-24T16:38:28.494Z,100.00
2023-03-24T16:40:57.904Z,100.00
2023-03-24T16:43:27.494Z,100.00
2023-03-24T16:45:55.098Z,100.00
2023-03-24T16:48:22.665Z,100.00
2023-03-24T16:50:51.894Z,100.00
2023-03-24T16:53:19.587Z,100.00
2023-03-24T16:55:47.795Z,100.00
2023-03-24T16:58:16.816Z,100.00
2023-03-24T17:00:45.948Z,100.00
2023-03-24T17:03:14.175Z,100.00
2023-03-24T17:05:50.792Z,100.00
2023-03-24T17:08:19.135Z,100.00
2023-03-24T17:10:49.455Z,100.00
2023-03-24T17:13:22.371Z,100.00
2023-03-24T17:15:51.269Z,100.00
2023-03-24T17:18:19.564Z,100.00
2023-03-24T17:20:48.350Z,100.00
2023-03-24T17:23:18.780Z,100.00
2023-03-24T17:25:46.349Z,100.00
2023-03-24T17:28:17.616Z,100.00
2023-03-24T17:30:45.112Z,100.00
2023-03-24T17:33:15.990Z,100.00
2023-03-24T17:35:46.779Z,100.00
2023-03-24T17:38:16.723Z,100.00
2023-03-24T17:40:44.782Z,100.00
2023-03-24T17:43:12.468Z,100.00
2023-03-24T17:45:41.456Z,100.00
2023-03-24T17:48:08.885Z,100.00
2023-03-24T17:50:36.545Z,100.00
2023-03-24T17:53:04.050Z,100.00
2023-03-24T17:55:31.528Z,100.00
2023-03-24T17:57:58.970Z,100.00
2023-03-24T18:00:26.609Z,100.00
2023-03-24T18:02:54.250Z,100.00
2023-03-24T18:05:21.818Z,100.00
2023-03-24T18:07:49.860Z,100.00
2023-03-24T18:10:17.565Z,100.00
2023-03-24T18:12:45.442Z,100.00
2023-03-24T18:15:12.990Z,100.00
2023-03-24T18:17:40.809Z,100.00
2023-03-24T18:20:14.927Z,100.00
2023-03-24T18:22:42.574Z,100.00
2023-03-24T18:25:11.857Z,100.00
2023-03-24T18:27:41.079Z,100.00
2023-03-24T18:30:11.169Z,100.00
2023-03-24T18:32:39.826Z,100.00
2023-03-24T18:35:09.206Z,100.00
2023-03-24T18:37:37.340Z,100.00
2023-03-24T18:40:09.146Z,100.00
2023-03-24T18:42:37.565Z,100.00
2023-03-24T18:45:07.188Z,100.00
2023-03-24T18:47:35.261Z,100.00
2023-03-24T18:50:02.844Z,100.00
2023-03-24T18:52:30.816Z,100.00
2023-03-24T18:54:59.550Z,100.00
2023-03-24T18:57:27.120Z,100.00
2023-03-24T18:59:54.586Z,100.00
2023-03-24T19:02:22.569Z,100.00
2023-03-24T19:04:49.979Z,100.00
2023-03-24T19:07:24.500Z,100.00
2023-03-24T19:09:52.873Z,100.00
2023-03-24T19:12:20.435Z,100.00
2023-03-24T19:14:47.985Z,100.00
2023-03-24T19:17:15.446Z,100.00
2023-03-24T19:19:43.625Z,100.00
2023-03-24T19:22:11.116Z,100.00
2023-03-24T19:24:38.649Z,100.00
2023-03-24T19:27:07.479Z,100.00
2023-03-24T19:29:35.157Z,100.00
2023-03-24T19:32:02.577Z,100.00
2023-03-24T19:34:31.146Z,100.00
2023-03-24T19:36:58.561Z,100.00
2023-03-24T19:39:26.594Z,100.00
2023-03-24T19:41:54.600Z,100.00
2023-03-24T19:44:22.583Z,100.00
2023-03-24T19:46:50.091Z,100.00
2023-03-24T19:49:17.648Z,100.00
2023-03-24T19:51:45.157Z,100.00
2023-03-24T19:54:12.583Z,100.00
2023-03-24T19:56:40.079Z,100.00
2023-03-24T19:59:07.719Z,100.00
2023-03-24T20:01:36.657Z,100.00
2023-03-24T20:04:04.614Z,100.00
2023-03-24T20:06:32.099Z,100.00
2023-03-24T20:08:59.613Z,100.00
2023-03-24T20:11:27.036Z,100.00
2023-03-24T20:13:54.466Z,100.00
2023-03-24T20:16:21.955Z,100.00
2023-03-24T20:18:49.457Z,100.00
2023-03-24T20:21:22.504Z,100.00
2023-03-24T20:23:51.172Z,100.00
2023-03-24T20:26:19.345Z,100.00
2023-03-24T20:28:47.356Z,100.00
2023-03-24T20:31:14.812Z,100.00
2023-03-24T20:33:42.475Z,100.00
2023-03-24T20:36:09.958Z,100.00
2023-03-24T20:38:37.556Z,100.00
2023-03-24T20:41:07.364Z,100.00
2023-03-24T20:43:37.224Z,100.00
2023-03-24T20:46:07.175Z,100.00
2023-03-24T20:48:36.004Z,100.00
2023-03-24T20:51:04.251Z,100.00
2023-03-24T20:53:36.106Z,100.00
2023-03-24T20:56:14.583Z,100.00
2023-03-24T20:58:44.647Z,100.00
2023-03-24T21:01:20.831Z,100.00
2023-03-24T21:03:53.106Z,100.00
2023-03-24T21:06:20.999Z,100.00
2023-03-24T21:08:48.511Z,100.00
2023-03-24T21:11:16.307Z,100.00
2023-03-24T21:13:43.995Z,100.00
2023-03-24T21:16:12.232Z,100.00
2023-03-24T21:18:42.762Z,100.00
2023-03-24T21:21:12.563Z,100.00
2023-03-24T21:23:41.989Z,100.00
2023-03-24T21:26:13.245Z,100.00
2023-03-24T21:28:41.205Z,100.00
2023-03-24T21:31:10.284Z,100.00
2023-03-24T21:33:40.913Z,100.00
2023-03-24T21:36:12.601Z,100.00
2023-03-24T21:38:40.658Z,100.00
2023-03-24T21:41:08.728Z,100.00
2023-03-24T21:43:37.047Z,100.00
2023-03-24T21:46:04.782Z,100.00
2023-03-24T21:48:40.133Z,100.00
2023-03-24T21:51:07.799Z,100.00
2023-03-24T21:53:35.316Z,100.00
2023-03-24T21:56:05.947Z,100.00
2023-03-24T21:58:34.928Z,100.00
2023-03-24T22:01:02.552Z,100.00
2023-03-24T22:03:30.673Z,100.00
2023-03-24T22:05:58.164Z,100.00
2023-03-24T22:08:30.849Z,100.00
2023-03-24T22:11:00.505Z,100.00
2023-03-24T22:13:28.997Z,100.00
2023-03-24T22:15:58.658Z,100.00
2023-03-24T22:18:28.204Z,100.00
2023-03-24T22:20:56.525Z,100.00
2023-03-24T22:23:24.110Z,100.00
2023-03-24T22:25:54.553Z,100.00
2023-03-24T22:28:22.123Z,100.00
2023-03-24T22:30:50.190Z,100.00
2023-03-24T22:33:17.863Z,100.00
2023-03-24T22:35:45.420Z,100.00
2023-03-24T22:38:15.142Z,100.00
2023-03-24T22:40:43.758Z,100.00
2023-03-24T22:43:11.394Z,100.00
2023-03-24T22:45:38.902Z,100.00
2023-03-24T22:48:06.773Z,100.00
2023-03-24T22:50:34.222Z,100.00
2023-03-24T22:53:01.756Z,100.00
2023-03-24T22:55:29.247Z,100.00
2023-03-24T22:57:56.751Z,100.00
2023-03-24T23:00:24.268Z,100.00
2023-03-24T23:02:51.825Z,100.00
2023-03-24T23:05:19.337Z,100.00
2023-03-24T23:07:47.525Z,100.00
2023-03-24T23:10:15.136Z,100.00
2023-03-24T23:12:44.155Z,100.00
2023-03-24T23:15:37.997Z,100.00
2023-03-24T23:18:05.882Z,100.00
2023-03-24T23:20:33.434Z,100.00
2023-03-24T23:23:01.482Z,100.00
2023-03-24T23:25:30.854Z,100.00
2023-03-24T23:27:59.236Z,100.00
2023-03-24T23:30:27.280Z,100.00
2023-03-24T23:32:54.794Z,100.00
2023-03-24T23:35:22.226Z,100.00
2023-03-24T23:37:50.016Z,100.00
2023-03-24T23:40:18.101Z,100.00
2023-03-24T23:42:47.514Z,100.00
2023-03-24T23:45:18.293Z,100.00
2023-03-24T23:47:49.906Z,100.00
2023-03-24T23:50:19.718Z,100.00
2023-03-24T23:52:47.966Z,100.00
2023-03-24T23:55:18.219Z,100.00
2023-03-24T23:57:46.883Z,100.00
